createdAt,value
2022-12-18T00:01:22.781Z,15.23
2022-12-18T00:03:50.275Z,15.10
2022-12-18T00:06:17.625Z,13.93
2022-12-18T00:08:45.621Z,14.35
2022-12-18T00:11:14.751Z,14.07
2022-12-18T00:13:42.497Z,14.77
2022-12-18T00:16:15.453Z,14.73
2022-12-18T00:18:42.610Z,14.80
2022-12-18T00:21:11.500Z,13.75
2022-12-18T00:23:39.429Z,14.77
2022-12-18T00:26:08.633Z,14.57
2022-12-18T00:28:35.341Z,14.63
2022-12-18T00:31:07.164Z,14.80
2022-12-18T00:33:34.297Z,15.35
2022-12-18T00:36:13.053Z,16.05
2022-12-18T00:38:39.883Z,13.98
2022-12-18T00:41:08.717Z,14.88
2022-12-18T00:43:36.436Z,15.25
2022-12-18T00:46:03.462Z,16.25
2022-12-18T00:48:30.542Z,14.60
2022-12-18T00:50:57.318Z,15.40
2022-12-18T00:53:24.101Z,15.65
2022-12-18T00:55:50.757Z,14.85
2022-12-18T00:58:17.976Z,15.55
2022-12-18T01:00:45.159Z,14.80
2022-12-18T01:03:15.377Z,15.55
2022-12-18T01:05:42.963Z,15.10
2022-12-18T01:08:09.726Z,15.57
2022-12-18T01:10:36.465Z,15.07
2022-12-18T01:13:03.229Z,15.43
2022-12-18T01:15:30.051Z,14.68
2022-12-18T01:17:56.765Z,15.73
2022-12-18T01:20:23.524Z,14.82
2022-12-18T01:22:50.353Z,15.30
2022-12-18T01:25:17.087Z,14.38
2022-12-18T01:27:43.872Z,16.00
2022-12-18T01:30:11.329Z,14.02
2022-12-18T01:32:38.052Z,14.27
2022-12-18T01:35:05.516Z,14.48
2022-12-18T01:37:32.250Z,12.93
2022-12-18T01:39:58.997Z,14.07
2022-12-18T01:42:26.742Z,14.30
2022-12-18T01:45:24.882Z,13.80
2022-12-18T01:48:00.473Z,12.68
2022-12-18T01:50:41.983Z,12.63
2022-12-18T01:53:14.948Z,12.00
2022-12-18T01:55:44.702Z,10.57
2022-12-18T01:58:11.469Z,10.45
2022-12-18T02:03:19.513Z,11.20
2022-12-18T02:05:51.845Z,12.27
2022-12-18T02:08:23.837Z,11.30
2022-12-18T02:11:16.938Z,11.45
2022-12-18T02:13:54.756Z,10.35
2022-12-18T02:16:57.133Z,10.80
2022-12-18T02:19:52.074Z,10.90
2022-12-18T02:22:57.008Z,11.70
2022-12-18T02:26:21.899Z,12.77
2022-12-18T02:29:07.242Z,10.52
2022-12-18T02:31:39.234Z,10.98
2022-12-18T02:34:08.038Z,10.63
2022-12-18T02:36:36.640Z,11.45
2022-12-18T02:39:04.029Z,11.90
2022-12-18T02:41:31.164Z,11.32
2022-12-18T02:44:03.180Z,10.80
2022-12-18T02:46:36.201Z,10.60
2022-12-18T02:49:11.215Z,11.15
2022-12-18T02:52:22.309Z,11.20
2022-12-18T02:54:53.281Z,11.68
2022-12-18T02:57:46.177Z,10.27
2022-12-18T03:00:18.090Z,11.70
2022-12-18T03:02:54.793Z,12.73
2022-12-18T03:05:24.399Z,11.55
2022-12-18T03:07:58.418Z,11.00
2022-12-18T03:10:31.431Z,10.93
2022-12-18T03:13:10.933Z,10.52
2022-12-18T03:15:40.513Z,10.00
2022-12-18T03:18:15.075Z,10.02
2022-12-18T03:20:43.831Z,10.32
2022-12-18T03:23:14.215Z,8.93
2022-12-18T03:25:43.867Z,9.88
2022-12-18T03:28:14.506Z,9.77
2022-12-18T03:30:43.066Z,9.55
2022-12-18T03:33:15.519Z,8.00
2022-12-18T03:35:44.006Z,8.00
2022-12-18T03:38:11.518Z,8.55
2022-12-18T03:41:10.423Z,8.95
2022-12-18T03:44:06.321Z,12.00
2022-12-18T03:46:54.511Z,9.57
2022-12-18T03:49:40.033Z,9.00
2022-12-18T03:52:22.371Z,8.30
2022-12-18T03:54:49.517Z,10.07
2022-12-18T03:57:22.633Z,8.68
2022-12-18T03:59:53.365Z,9.30
2022-12-18T04:02:20.761Z,11.32
2022-12-18T04:04:48.116Z,9.90
2022-12-18T04:07:16.114Z,10.15
2022-12-18T04:09:43.330Z,9.82
2022-12-18T04:12:10.304Z,10.50
2022-12-18T04:14:37.288Z,9.80
2022-12-18T04:17:04.803Z,9.48
2022-12-18T04:19:31.825Z,11.82
2022-12-18T04:21:58.641Z,11.65
2022-12-18T04:24:25.535Z,11.75
2022-12-18T04:26:52.312Z,11.57
2022-12-18T04:29:19.070Z,11.73
2022-12-18T04:31:45.819Z,12.05
2022-12-18T04:34:12.657Z,11.65
2022-12-18T04:36:39.529Z,10.70
2022-12-18T04:39:06.318Z,12.43
2022-12-18T04:41:33.158Z,12.18
2022-12-18T04:43:59.928Z,10.98
2022-12-18T04:46:26.670Z,9.88
2022-12-18T04:48:53.460Z,10.45
2022-12-18T04:51:26.195Z,10.40
2022-12-18T04:53:53.887Z,11.57
2022-12-18T04:56:20.778Z,11.77
2022-12-18T04:58:47.533Z,11.10
2022-12-18T05:01:16.120Z,10.80
2022-12-18T05:03:43.676Z,9.68
2022-12-18T05:06:10.959Z,10.60
2022-12-18T05:08:37.685Z,11.55
2022-12-18T05:11:10.016Z,10.20
2022-12-18T05:13:39.507Z,7.65
2022-12-18T05:16:07.442Z,9.23
2022-12-18T05:18:34.395Z,7.80
2022-12-18T05:21:01.466Z,7.70
2022-12-18T05:23:28.507Z,8.80
2022-12-18T05:25:57.642Z,7.88
2022-12-18T05:28:25.497Z,9.15
2022-12-18T05:30:54.079Z,9.63
2022-12-18T05:33:22.761Z,8.63
2022-12-18T05:35:56.690Z,8.40
2022-12-18T05:38:24.285Z,7.57
2022-12-18T05:40:52.028Z,8.45
2022-12-18T05:43:21.635Z,8.68
2022-12-18T05:45:49.107Z,8.00
2022-12-18T05:48:16.212Z,7.15
2022-12-18T05:50:46.625Z,8.55
2022-12-18T05:53:14.974Z,8.18
2022-12-18T05:55:42.617Z,9.25
2022-12-18T05:58:11.401Z,9.13
2022-12-18T06:00:41.099Z,8.63
2022-12-18T06:03:09.980Z,8.30
2022-12-18T06:05:45.372Z,8.30
2022-12-18T06:08:13.309Z,8.25
2022-12-18T06:10:40.735Z,8.05
2022-12-18T06:13:08.577Z,7.93
2022-12-18T06:15:37.999Z,8.23
2022-12-18T06:18:04.901Z,7.45
2022-12-18T06:20:33.592Z,10.73
2022-12-18T06:23:01.070Z,7.63
2022-12-18T06:25:27.882Z,7.82
2022-12-18T06:27:55.035Z,7.10
2022-12-18T06:30:22.092Z,7.72
2022-12-18T06:32:56.602Z,11.52
2022-12-18T06:35:24.170Z,8.05
2022-12-18T06:37:51.060Z,8.07
2022-12-18T06:40:18.143Z,11.88
2022-12-18T06:42:44.899Z,7.80
2022-12-18T06:45:12.614Z,7.88
2022-12-18T06:47:39.409Z,7.53
2022-12-18T06:50:06.899Z,7.60
2022-12-18T06:52:34.193Z,7.65
2022-12-18T06:55:01.213Z,7.95
2022-12-18T06:57:28.033Z,10.07
2022-12-18T06:59:54.900Z,8.23
2022-12-18T07:02:21.931Z,7.90
2022-12-18T07:04:51.859Z,7.47
2022-12-18T07:07:18.828Z,7.45
2022-12-18T07:09:45.835Z,8.07
2022-12-18T07:12:12.788Z,7.93
2022-12-18T07:14:39.578Z,8.18
2022-12-18T07:17:06.674Z,7.65
2022-12-18T07:19:33.800Z,8.23
2022-12-18T07:22:00.875Z,7.88
2022-12-18T07:24:27.649Z,8.40
2022-12-18T07:26:54.479Z,7.57
2022-12-18T07:29:21.248Z,10.80
2022-12-18T07:31:48.163Z,7.57
2022-12-18T07:34:16.332Z,6.80
2022-12-18T07:36:43.372Z,6.25
2022-12-18T07:39:12.292Z,7.35
2022-12-18T07:41:43.743Z,7.95
2022-12-18T07:44:13.924Z,8.15
2022-12-18T07:46:41.257Z,10.57
2022-12-18T07:49:08.261Z,12.25
2022-12-18T07:51:35.119Z,13.50
2022-12-18T07:54:02.108Z,13.35
2022-12-18T07:56:31.225Z,13.60
2022-12-18T07:58:58.758Z,11.15
2022-12-18T08:01:25.816Z,12.82
2022-12-18T08:03:52.818Z,11.82
2022-12-18T08:06:21.784Z,11.07
2022-12-18T08:08:52.689Z,10.23
2022-12-18T08:11:19.486Z,11.93
2022-12-18T08:13:46.534Z,12.15
2022-12-18T08:16:13.314Z,12.18
2022-12-18T08:18:40.045Z,10.23
2022-12-18T08:21:26.214Z,10.93
2022-12-18T08:23:54.747Z,10.00
2022-12-18T08:26:21.943Z,9.88
2022-12-18T08:28:49.380Z,10.48
2022-12-18T08:31:17.285Z,9.20
2022-12-18T08:33:44.481Z,10.10
2022-12-18T08:36:11.799Z,9.98
2022-12-18T08:38:38.839Z,9.05
2022-12-18T08:41:07.916Z,10.88
2022-12-18T08:43:53.265Z,10.75
2022-12-18T08:46:20.990Z,11.63
2022-12-18T08:48:48.233Z,12.15
2022-12-18T08:51:17.353Z,12.52
2022-12-18T08:53:45.615Z,13.38
2022-12-18T08:56:12.882Z,15.50
2022-12-18T08:58:40.131Z,15.15
2022-12-18T09:01:10.440Z,10.88
2022-12-18T09:03:37.768Z,9.98
2022-12-18T09:06:05.208Z,10.60
2022-12-18T09:08:31.982Z,10.93
2022-12-18T09:10:58.788Z,11.48
2022-12-18T09:13:25.737Z,11.88
2022-12-18T09:15:54.320Z,12.07
2022-12-18T09:18:22.255Z,11.23
2022-12-18T09:20:49.108Z,12.27
2022-12-18T09:23:15.866Z,12.23
2022-12-18T09:25:42.750Z,14.20
2022-12-18T09:28:14.774Z,14.35
2022-12-18T09:30:44.605Z,12.52
2022-12-18T09:33:11.667Z,11.40
2022-12-18T09:35:39.989Z,12.05
2022-12-18T09:38:07.626Z,12.02
2022-12-18T09:40:41.790Z,13.52
2022-12-18T09:43:21.690Z,15.85
2022-12-18T09:45:53.301Z,18.17
2022-12-18T09:48:32.994Z,15.77
2022-12-18T09:51:04.017Z,13.45
2022-12-18T09:53:34.526Z,15.95
2022-12-18T09:56:03.456Z,19.52
2022-12-18T09:58:36.269Z,21.15
2022-12-18T10:01:03.234Z,16.80
2022-12-18T10:03:30.003Z,16.65
2022-12-18T10:06:13.235Z,18.23
2022-12-18T10:09:25.337Z,19.70
2022-12-18T10:12:04.785Z,18.25
2022-12-18T10:15:06.263Z,21.13
2022-12-18T10:18:29.446Z,16.73
2022-12-18T10:21:01.544Z,18.70
2022-12-18T10:23:35.153Z,19.20
2022-12-18T10:28:36.687Z,15.98
2022-12-18T10:31:03.635Z,14.57
2022-12-18T10:33:32.822Z,15.13
2022-12-18T10:36:00.223Z,13.20
2022-12-18T10:38:31.670Z,12.07
2022-12-18T10:41:06.945Z,11.43
2022-12-18T10:43:38.596Z,11.77
2022-12-18T10:46:16.078Z,11.57
2022-12-18T10:48:55.477Z,13.73
2022-12-18T10:51:34.803Z,25.52
2022-12-18T10:54:07.129Z,13.40
2022-12-18T10:56:37.947Z,11.63
2022-12-18T10:59:07.775Z,11.10
2022-12-18T11:01:58.972Z,11.27
2022-12-18T11:04:28.567Z,15.35
2022-12-18T11:07:04.436Z,18.90
2022-12-18T11:09:36.818Z,13.35
2022-12-18T11:12:07.336Z,10.80
2022-12-18T11:14:35.800Z,13.80
2022-12-18T11:17:24.752Z,12.48
2022-12-18T11:19:59.910Z,15.18
2022-12-18T11:22:31.056Z,14.50
2022-12-18T11:28:29.774Z,14.23
2022-12-18T11:31:18.495Z,12.32
2022-12-18T11:34:26.880Z,10.98
2022-12-18T11:36:43.854Z,11.57
2022-12-18T11:39:17.651Z,12.23
2022-12-18T11:42:13.079Z,10.68
2022-12-18T11:45:00.255Z,27.00
2022-12-18T11:48:00.586Z,10.82
2022-12-18T11:50:35.370Z,10.73
2022-12-18T11:53:06.174Z,10.15
2022-12-18T11:55:53.697Z,9.18
2022-12-18T11:58:52.061Z,8.80
2022-12-18T12:01:26.336Z,20.35
2022-12-18T12:04:16.505Z,13.43
2022-12-18T12:07:18.923Z,14.25
2022-12-18T12:10:07.609Z,9.60
2022-12-18T12:13:14.908Z,17.55
2022-12-18T12:16:20.379Z,10.45
2022-12-18T12:19:05.535Z,10.20
2022-12-18T12:21:42.295Z,9.88
2022-12-18T12:24:44.547Z,10.52
2022-12-18T12:27:46.790Z,11.25
2022-12-18T12:30:27.697Z,15.88
2022-12-18T12:33:17.682Z,17.00
2022-12-18T12:36:02.652Z,20.88
2022-12-18T12:38:53.509Z,23.55
2022-12-18T12:41:42.187Z,19.90
2022-12-18T12:44:14.219Z,17.35
2022-12-18T12:46:43.065Z,20.77
2022-12-18T12:49:18.883Z,12.38
2022-12-18T12:51:49.529Z,19.40
2022-12-18T12:54:23.825Z,12.50
2022-12-18T12:57:22.637Z,12.50
2022-12-18T13:00:09.845Z,10.15
2022-12-18T13:02:43.751Z,12.27
2022-12-18T13:05:13.244Z,11.15
2022-12-18T13:07:49.082Z,10.77
2022-12-18T13:10:41.827Z,12.38
2022-12-18T13:13:13.586Z,9.82
2022-12-18T13:15:52.470Z,8.02
2022-12-18T13:18:23.639Z,6.60
2022-12-18T13:21:02.904Z,7.50
2022-12-18T13:23:39.924Z,11.65
2022-12-18T13:26:28.850Z,10.60
2022-12-18T13:28:57.658Z,9.88
2022-12-18T13:32:03.079Z,9.00
2022-12-18T13:34:32.410Z,9.75
2022-12-18T13:37:54.244Z,8.80
2022-12-18T13:40:42.688Z,6.45
2022-12-18T13:43:41.529Z,7.07
2022-12-18T13:46:32.218Z,6.25
2022-12-18T13:49:03.381Z,6.35
2022-12-18T13:51:32.140Z,6.63
2022-12-18T13:54:04.464Z,6.97
2022-12-18T13:56:33.746Z,8.90
2022-12-18T13:59:18.595Z,6.85
2022-12-18T14:01:56.274Z,5.63
2022-12-18T14:04:35.808Z,6.25
2022-12-18T14:07:13.626Z,5.85
2022-12-18T14:09:47.627Z,5.20
2022-12-18T14:12:35.915Z,5.38
2022-12-18T14:15:03.159Z,5.72
2022-12-18T14:17:30.286Z,5.47
2022-12-18T14:19:57.643Z,5.50
2022-12-18T14:22:31.346Z,5.78
2022-12-18T14:25:21.124Z,6.35
2022-12-18T14:28:19.716Z,6.22
2022-12-18T14:30:47.523Z,5.90
2022-12-18T14:33:15.627Z,6.15
2022-12-18T14:35:45.063Z,5.28
2022-12-18T14:38:23.466Z,5.97
2022-12-18T14:41:01.757Z,5.50
2022-12-18T14:43:30.516Z,6.38
2022-12-18T14:45:57.773Z,6.38
2022-12-18T14:48:35.404Z,6.22
2022-12-18T14:51:08.096Z,7.22
2022-12-18T14:53:38.181Z,6.80
2022-12-18T14:56:34.219Z,5.82
2022-12-18T14:59:04.595Z,6.00
2022-12-18T15:01:37.066Z,7.20
2022-12-18T15:04:05.330Z,7.25
2022-12-18T15:06:38.328Z,7.57
2022-12-18T15:09:22.577Z,8.25
2022-12-18T15:14:42.203Z,6.75
2022-12-18T15:17:20.445Z,7.35
2022-12-18T15:19:48.637Z,7.20
2022-12-18T15:22:22.769Z,7.35
2022-12-18T15:24:50.329Z,7.35
2022-12-18T15:27:25.889Z,7.75
2022-12-18T15:30:11.831Z,7.78
2022-12-18T15:32:40.221Z,7.65
2022-12-18T15:35:26.361Z,6.88
2022-12-18T15:37:53.599Z,7.50
2022-12-18T15:40:22.929Z,8.15
2022-12-18T15:43:08.444Z,7.75
2022-12-18T15:45:35.239Z,8.30
2022-12-18T15:48:02.142Z,7.55
2022-12-18T15:50:29.521Z,7.18
2022-12-18T15:52:57.700Z,8.30
2022-12-18T15:55:44.309Z,6.75
2022-12-18T15:58:12.847Z,6.95
2022-12-18T16:00:41.463Z,8.27
2022-12-18T16:03:10.500Z,7.97
2022-12-18T16:05:41.068Z,8.88
2022-12-18T16:08:08.092Z,8.63
2022-12-18T16:10:35.920Z,7.25
2022-12-18T16:13:02.767Z,7.47
2022-12-18T16:15:29.655Z,7.68
2022-12-18T16:17:56.460Z,7.78
2022-12-18T16:20:23.852Z,7.43
2022-12-18T16:22:51.207Z,6.78
2022-12-18T16:25:23.884Z,7.75
2022-12-18T16:27:51.112Z,7.88
2022-12-18T16:30:21.828Z,7.35
2022-12-18T16:32:48.650Z,9.02
2022-12-18T16:35:17.341Z,7.90
2022-12-18T16:37:44.705Z,7.30
2022-12-18T16:40:14.197Z,7.20
2022-12-18T16:42:42.955Z,6.97
2022-12-18T16:45:12.613Z,7.45
2022-12-18T16:47:39.443Z,8.40
2022-12-18T16:50:07.272Z,7.70
2022-12-18T16:52:35.058Z,7.97
2022-12-18T16:55:05.392Z,7.32
2022-12-18T16:57:32.162Z,7.57
2022-12-18T17:00:04.670Z,7.70
2022-12-18T17:02:32.699Z,7.93
2022-12-18T17:05:00.279Z,8.43
2022-12-18T17:07:28.604Z,8.10
2022-12-18T17:09:56.215Z,8.18
2022-12-18T17:12:23.843Z,8.27
2022-12-18T17:14:50.700Z,10.00
2022-12-18T17:17:22.641Z,8.98
2022-12-18T17:19:50.831Z,8.18
2022-12-18T17:22:17.532Z,8.60
2022-12-18T17:24:44.350Z,8.82
2022-12-18T17:27:11.150Z,8.75
2022-12-18T17:29:41.335Z,9.70
2022-12-18T17:32:12.061Z,10.18
2022-12-18T17:34:39.004Z,8.68
2022-12-18T17:37:05.923Z,8.63
2022-12-18T17:39:33.998Z,7.90
2022-12-18T17:42:01.674Z,7.90
2022-12-18T17:44:28.482Z,7.68
2022-12-18T17:46:55.701Z,8.00
2022-12-18T17:49:22.548Z,7.30
2022-12-18T17:51:49.384Z,7.25
2022-12-18T17:54:16.289Z,7.72
2022-12-18T17:56:43.297Z,7.50
2022-12-18T17:59:10.195Z,7.55
2022-12-18T18:01:43.741Z,7.85
2022-12-18T18:04:11.805Z,5.65
2022-12-18T18:06:39.076Z,8.32
2022-12-18T18:09:06.667Z,8.43
2022-12-18T18:12:05.204Z,7.60
2022-12-18T18:14:32.412Z,7.70
2022-12-18T18:17:04.108Z,7.80
2022-12-18T18:19:32.121Z,8.27
2022-12-18T18:21:58.859Z,8.05
2022-12-18T18:24:26.184Z,8.50
2022-12-18T18:26:53.171Z,8.60
2022-12-18T18:29:23.883Z,8.18
2022-12-18T18:31:53.587Z,8.50
2022-12-18T18:34:31.716Z,8.25
2022-12-18T18:36:58.793Z,7.80
2022-12-18T18:39:26.161Z,7.82
2022-12-18T18:41:52.875Z,8.05
2022-12-18T18:44:24.759Z,7.80
2022-12-18T18:46:55.500Z,8.77
2022-12-18T18:49:24.301Z,8.48
2022-12-18T18:51:51.106Z,8.02
2022-12-18T18:54:17.990Z,7.82
2022-12-18T18:57:19.027Z,8.27
2022-12-18T18:59:32.273Z,8.45
2022-12-18T19:02:00.775Z,9.23
2022-12-18T19:04:33.132Z,9.02
2022-12-18T19:07:00.178Z,8.40
2022-12-18T19:09:27.930Z,8.38
2022-12-18T19:12:14.637Z,9.18
2022-12-18T19:14:41.592Z,7.32
2022-12-18T19:17:08.850Z,9.38
2022-12-18T19:19:35.884Z,9.40
2022-12-18T19:22:02.789Z,9.85
2022-12-18T19:24:29.537Z,8.90
2022-12-18T19:26:58.100Z,8.32
2022-12-18T19:29:25.633Z,10.48
2022-12-18T19:31:53.003Z,10.02
2022-12-18T19:34:19.815Z,9.18
2022-12-18T19:36:46.758Z,8.50
2022-12-18T19:39:16.608Z,9.18
2022-12-18T19:41:43.694Z,9.40
2022-12-18T19:44:19.990Z,9.82
2022-12-18T19:46:50.861Z,9.40
2022-12-18T19:49:18.427Z,8.73
2022-12-18T19:51:45.626Z,8.85
2022-12-18T19:54:17.038Z,9.60
2022-12-18T19:56:44.316Z,9.93
2022-12-18T19:59:11.055Z,9.57
2022-12-18T20:01:37.987Z,9.23
2022-12-18T20:04:05.343Z,9.50
2022-12-18T20:06:46.236Z,9.27
2022-12-18T20:09:13.019Z,8.80
2022-12-18T20:11:42.178Z,9.45
2022-12-18T20:14:11.135Z,8.70
2022-12-18T20:16:38.361Z,9.68
2022-12-18T20:19:05.718Z,9.50
2022-12-18T20:21:32.565Z,9.40
2022-12-18T20:24:00.302Z,9.60
2022-12-18T20:26:27.194Z,8.18
2022-12-18T20:28:55.162Z,9.13
2022-12-18T20:31:22.680Z,9.40
2022-12-18T20:33:49.917Z,9.63
2022-12-18T20:36:22.577Z,9.13
2022-12-18T20:38:56.367Z,8.57
2022-12-18T20:41:24.954Z,9.30
2022-12-18T20:43:52.155Z,9.85
2022-12-18T20:46:19.295Z,9.07
2022-12-18T20:48:46.249Z,8.15
2022-12-18T20:51:16.311Z,9.68
2022-12-18T20:53:43.657Z,9.43
2022-12-18T20:56:21.904Z,8.68
2022-12-18T20:58:50.146Z,8.43
2022-12-18T21:01:20.759Z,7.68
2022-12-18T21:03:48.261Z,8.57
2022-12-18T21:06:16.953Z,8.60
2022-12-18T21:08:44.171Z,9.18
2022-12-18T21:11:49.024Z,8.43
2022-12-18T21:14:18.158Z,8.27
2022-12-18T21:16:45.669Z,8.23
2022-12-18T21:19:14.095Z,8.98
2022-12-18T21:21:41.395Z,7.97
2022-12-18T21:24:09.984Z,8.27
2022-12-18T21:26:43.393Z,9.05
2022-12-18T21:29:14.315Z,8.52
2022-12-18T21:31:41.632Z,9.07
2022-12-18T21:34:10.226Z,8.13
2022-12-18T21:36:37.079Z,8.20
2022-12-18T21:39:04.219Z,8.30
2022-12-18T21:41:49.429Z,8.57
2022-12-18T21:44:18.797Z,8.82
2022-12-18T21:46:54.531Z,9.00
2022-12-18T21:49:23.972Z,9.18
2022-12-18T21:51:52.721Z,8.70
2022-12-18T21:54:20.286Z,9.35
2022-12-18T21:56:57.982Z,8.75
2022-12-18T21:59:39.611Z,9.02
2022-12-18T22:02:11.025Z,9.18
2022-12-18T22:04:37.960Z,8.45
2022-12-18T22:07:06.250Z,9.27
2022-12-18T22:09:33.144Z,9.18
2022-12-18T22:12:00.570Z,8.68
2022-12-18T22:14:27.509Z,8.10
2022-12-18T22:16:56.385Z,8.23
2022-12-18T22:19:25.426Z,8.85
2022-12-18T22:21:52.844Z,8.57
2022-12-18T22:24:25.092Z,9.30
2022-12-18T22:27:01.693Z,8.50
2022-12-18T22:29:47.588Z,9.60
2022-12-18T22:32:21.430Z,9.38
2022-12-18T22:35:07.210Z,7.90
2022-12-18T22:37:36.996Z,8.88
2022-12-18T22:40:05.956Z,8.93
2022-12-18T22:42:34.003Z,9.43
2022-12-18T22:45:00.990Z,9.23
2022-12-18T22:47:30.007Z,8.82
2022-12-18T22:49:58.079Z,9.15
2022-12-18T22:52:25.302Z,9.52
2022-12-18T22:54:53.239Z,8.65
2022-12-18T22:57:21.891Z,8.98
2022-12-18T22:59:49.649Z,9.02
2022-12-18T23:02:18.150Z,8.93
2022-12-18T23:04:45.277Z,9.27
2022-12-18T23:07:12.594Z,8.23
2022-12-18T23:09:39.876Z,8.45
2022-12-18T23:12:07.155Z,9.27
2022-12-18T23:14:34.134Z,9.55
2022-12-18T23:17:00.996Z,8.93
2022-12-18T23:19:27.880Z,9.00
2022-12-18T23:21:57.748Z,9.35
2022-12-18T23:24:28.945Z,9.02
2022-12-18T23:26:59.343Z,9.27
2022-12-18T23:29:26.162Z,9.27
2022-12-18T23:31:53.018Z,8.68
2022-12-18T23:34:19.849Z,8.85
2022-12-18T23:36:47.478Z,8.77
2022-12-18T23:39:29.398Z,8.80
2022-12-18T23:41:59.536Z,9.65
2022-12-18T23:44:26.625Z,8.85
2022-12-18T23:46:53.510Z,8.82
2022-12-18T23:49:20.384Z,8.57
2022-12-18T23:51:47.120Z,8.40
2022-12-18T23:54:13.888Z,9.25
2022-12-18T23:56:40.760Z,9.50
2022-12-18T23:59:07.492Z,9.32
